createdAt,value
2023-04-22T00:01:40.558Z,2.20
2023-04-22T00:04:13.398Z,2.20
2023-04-22T00:06:46.726Z,2.40
2023-04-22T00:09:19.691Z,1.93
2023-04-22T00:11:53.047Z,2.40
2023-04-22T00:14:25.994Z,2.17
2023-04-22T00:16:58.843Z,2.17
2023-04-22T00:19:31.920Z,2.10
2023-04-22T00:22:05.049Z,2.27
2023-04-22T00:24:37.806Z,2.50
2023-04-22T00:27:12.376Z,2.33
2023-04-22T00:29:45.249Z,2.30
2023-04-22T00:32:18.385Z,2.43
2023-04-22T00:34:52.367Z,2.27
2023-04-22T00:37:26.040Z,2.37
2023-04-22T00:39:58.904Z,2.27
2023-04-22T00:42:32.568Z,2.10
2023-04-22T00:45:11.610Z,2.13
2023-04-22T00:47:46.166Z,2.30
2023-04-22T00:50:19.101Z,2.20
2023-04-22T00:52:52.243Z,1.97
2023-04-22T00:55:25.569Z,2.47
2023-04-22T00:58:00.594Z,2.30
2023-04-22T01:00:35.211Z,2.17
2023-04-22T01:03:09.266Z,2.40
2023-04-22T01:05:42.868Z,2.33
2023-04-22T01:08:16.831Z,1.87
2023-04-22T01:10:50.231Z,2.33
2023-04-22T01:13:23.178Z,2.30
2023-04-22T01:15:56.354Z,2.60
2023-04-22T01:18:29.430Z,2.70
2023-04-22T01:21:02.602Z,2.60
2023-04-22T01:23:35.648Z,2.23
2023-04-22T01:26:08.361Z,2.30
2023-04-22T01:28:41.786Z,2.70
2023-04-22T01:31:15.439Z,2.03
2023-04-22T01:33:48.528Z,2.67
2023-04-22T01:36:22.180Z,2.47
2023-04-22T01:38:56.609Z,2.00
2023-04-22T01:41:32.777Z,2.57
2023-04-22T01:44:05.880Z,2.43
2023-04-22T01:46:39.712Z,2.33
2023-04-22T01:49:13.176Z,2.40
2023-04-22T01:51:45.991Z,2.30
2023-04-22T01:54:18.917Z,2.30
2023-04-22T01:56:53.996Z,2.73
2023-04-22T01:59:27.320Z,2.50
2023-04-22T02:02:00.855Z,2.60
2023-04-22T02:04:33.962Z,2.60
2023-04-22T02:07:06.800Z,2.40
2023-04-22T02:09:42.709Z,2.40
2023-04-22T02:12:15.930Z,2.40
2023-04-22T02:14:49.879Z,2.47
2023-04-22T02:17:25.040Z,1.97
2023-04-22T02:19:57.898Z,2.50
2023-04-22T02:22:32.092Z,2.57
2023-04-22T02:25:07.575Z,2.07
2023-04-22T02:27:40.568Z,2.20
2023-04-22T02:30:13.748Z,2.13
2023-04-22T02:32:46.804Z,2.03
2023-04-22T02:35:20.588Z,1.93
2023-04-22T02:37:56.710Z,1.90
2023-04-22T02:40:32.017Z,2.00
2023-04-22T02:43:05.312Z,1.93
2023-04-22T02:45:38.789Z,2.30
2023-04-22T02:48:11.558Z,2.20
2023-04-22T02:50:44.462Z,2.47
2023-04-22T02:53:17.169Z,2.70
2023-04-22T02:55:49.955Z,2.50
2023-04-22T02:58:22.964Z,2.73
2023-04-22T03:00:57.913Z,2.70
2023-04-22T03:03:32.015Z,2.50
2023-04-22T03:06:05.189Z,2.63
2023-04-22T03:08:37.997Z,2.90
2023-04-22T03:11:11.227Z,2.77
2023-04-22T03:13:44.375Z,2.27
2023-04-22T03:16:18.081Z,3.27
2023-04-22T03:18:51.809Z,2.70
2023-04-22T03:21:24.592Z,2.67
2023-04-22T03:23:57.942Z,2.70
2023-04-22T03:26:31.783Z,2.33
2023-04-22T03:29:05.634Z,1.97
2023-04-22T03:31:38.765Z,2.30
2023-04-22T03:34:11.953Z,2.53
2023-04-22T03:36:45.058Z,2.80
2023-04-22T03:39:18.362Z,2.40
2023-04-22T03:41:51.785Z,2.73
2023-04-22T03:44:24.564Z,2.30
2023-04-22T03:46:57.974Z,2.30
2023-04-22T03:49:36.182Z,2.80
2023-04-22T03:52:09.622Z,2.53
2023-04-22T03:54:45.670Z,2.40
2023-04-22T03:57:18.952Z,2.70
2023-04-22T03:59:52.511Z,2.10
2023-04-22T04:02:26.338Z,2.50
2023-04-22T04:04:59.649Z,3.00
2023-04-22T04:07:33.123Z,2.30
2023-04-22T04:10:06.532Z,2.57
2023-04-22T04:12:39.620Z,2.97
2023-04-22T04:15:12.846Z,2.47
2023-04-22T04:17:46.428Z,2.57
2023-04-22T04:20:20.073Z,2.57
2023-04-22T04:22:53.146Z,2.67
2023-04-22T04:25:25.993Z,2.70
2023-04-22T04:27:59.586Z,2.50
2023-04-22T04:30:33.669Z,2.60
2023-04-22T04:33:08.971Z,2.70
2023-04-22T04:35:44.968Z,2.90
2023-04-22T04:38:22.917Z,2.70
2023-04-22T04:40:55.790Z,2.50
2023-04-22T04:43:31.010Z,2.60
2023-04-22T04:46:24.257Z,2.57
2023-04-22T04:48:57.712Z,2.60
2023-04-22T04:51:33.403Z,2.40
2023-04-22T04:54:07.521Z,2.47
2023-04-22T04:56:44.840Z,2.63
2023-04-22T04:59:17.620Z,2.60
2023-04-22T05:01:50.528Z,2.30
2023-04-22T05:04:24.076Z,2.80
2023-04-22T05:06:57.132Z,2.93
2023-04-22T05:09:37.540Z,2.77
2023-04-22T05:12:10.853Z,2.70
2023-04-22T05:14:44.882Z,2.77
2023-04-22T05:17:21.099Z,2.83
2023-04-22T05:19:55.030Z,2.40
2023-04-22T05:22:27.783Z,2.70
2023-04-22T05:25:00.877Z,2.17
2023-04-22T05:27:33.760Z,2.67
2023-04-22T05:30:09.615Z,2.60
2023-04-22T05:32:42.669Z,2.60
2023-04-22T05:35:16.407Z,2.50
2023-04-22T05:37:50.002Z,2.90
2023-04-22T05:40:23.155Z,2.97
2023-04-22T05:42:57.474Z,2.77
2023-04-22T05:45:30.453Z,2.47
2023-04-22T05:48:04.002Z,2.63
2023-04-22T05:50:42.043Z,2.63
2023-04-22T05:53:15.147Z,2.47
2023-04-22T05:55:49.182Z,2.77
2023-04-22T05:58:24.249Z,2.63
2023-04-22T06:01:01.237Z,2.87
2023-04-22T06:03:49.730Z,2.70
2023-04-22T06:06:23.496Z,2.40
2023-04-22T06:08:56.543Z,2.50
2023-04-22T06:11:29.687Z,2.23
2023-04-22T06:14:02.412Z,2.30
2023-04-22T06:16:37.829Z,2.17
2023-04-22T06:19:11.928Z,2.10
2023-04-22T06:21:45.385Z,2.10
2023-04-22T06:24:18.384Z,2.13
2023-04-22T06:26:51.715Z,2.50
2023-04-22T06:29:25.557Z,2.43
2023-04-22T06:31:59.629Z,2.03
2023-04-22T06:34:32.629Z,2.13
2023-04-22T06:37:05.751Z,2.00
2023-04-22T06:39:38.800Z,1.90
2023-04-22T06:42:31.477Z,2.00
2023-04-22T06:45:42.843Z,2.20
2023-04-22T06:48:27.648Z,1.83
2023-04-22T06:51:33.358Z,2.37
2023-04-22T06:54:08.502Z,2.10
2023-04-22T06:56:41.590Z,2.10
2023-04-22T06:59:14.485Z,1.90
2023-04-22T07:01:47.251Z,2.10
2023-04-22T07:04:21.020Z,2.07
2023-04-22T07:06:55.960Z,2.07
2023-04-22T07:09:29.343Z,2.10
2023-04-22T07:12:02.921Z,2.10
2023-04-22T07:14:38.864Z,1.90
2023-04-22T07:17:12.031Z,1.77
2023-04-22T07:19:44.919Z,2.17
2023-04-22T07:22:17.826Z,2.00
2023-04-22T07:24:50.674Z,1.87
2023-04-22T07:27:23.825Z,2.10
2023-04-22T07:29:56.514Z,1.90
2023-04-22T07:32:29.454Z,2.13
2023-04-22T07:35:02.479Z,1.80
2023-04-22T07:37:35.622Z,2.03
2023-04-22T07:40:11.662Z,1.97
2023-04-22T07:42:44.519Z,1.97
2023-04-22T07:45:17.512Z,2.20
2023-04-22T07:47:50.931Z,2.13
2023-04-22T07:50:24.019Z,2.00
2023-04-22T07:52:57.092Z,1.93
2023-04-22T07:55:29.956Z,2.13
2023-04-22T07:58:06.403Z,1.77
2023-04-22T08:00:39.396Z,1.73
2023-04-22T08:03:12.462Z,1.75
2023-04-22T08:05:45.507Z,1.60
2023-04-22T08:08:18.498Z,1.90
2023-04-22T08:10:51.356Z,1.60
2023-04-22T08:13:24.139Z,1.73
2023-04-22T08:15:56.963Z,1.73
2023-04-22T08:18:30.304Z,1.47
2023-04-22T08:21:03.515Z,1.63
2023-04-22T08:23:36.461Z,1.40
2023-04-22T08:26:12.036Z,2.00
2023-04-22T08:28:45.183Z,1.70
2023-04-22T08:31:18.050Z,1.50
2023-04-22T08:33:51.133Z,1.40
2023-04-22T08:36:26.777Z,1.40
2023-04-22T08:38:59.680Z,1.25
2023-04-22T08:41:35.059Z,1.25
2023-04-22T08:44:08.702Z,1.23
2023-04-22T08:46:47.048Z,1.45
2023-04-22T08:49:20.440Z,1.40
2023-04-22T08:51:56.199Z,1.20
2023-04-22T08:54:29.258Z,1.05
2023-04-22T08:57:03.199Z,1.17
2023-04-22T08:59:37.933Z,1.13
2023-04-22T09:02:20.155Z,1.33
2023-04-22T09:04:54.173Z,1.20
2023-04-22T09:07:31.647Z,1.20
2023-04-22T09:10:05.019Z,1.35
2023-04-22T09:12:38.909Z,1.42
2023-04-22T09:15:12.173Z,1.37
2023-04-22T09:17:45.606Z,1.52
2023-04-22T09:20:19.852Z,1.05
2023-04-22T09:22:53.932Z,1.25
2023-04-22T09:25:28.411Z,1.13
2023-04-22T09:28:02.017Z,1.30
2023-04-22T09:30:37.883Z,1.13
2023-04-22T09:33:13.826Z,1.30
2023-04-22T09:35:47.910Z,1.30
2023-04-22T09:38:21.016Z,1.10
2023-04-22T09:40:53.975Z,1.15
2023-04-22T09:43:26.811Z,1.10
2023-04-22T09:46:01.045Z,1.17
2023-04-22T09:48:33.838Z,1.20
2023-04-22T09:51:16.482Z,1.17
2023-04-22T09:54:09.932Z,1.33
2023-04-22T09:56:52.036Z,1.10
2023-04-22T09:59:29.726Z,1.17
2023-04-22T10:02:07.423Z,1.00
2023-04-22T10:04:40.995Z,1.00
2023-04-22T10:07:15.110Z,1.23
2023-04-22T10:09:48.003Z,1.20
2023-04-22T10:12:29.437Z,1.30
2023-04-22T10:15:07.572Z,1.13
2023-04-22T10:17:41.493Z,1.13
2023-04-22T10:20:17.475Z,1.15
2023-04-22T10:22:53.696Z,0.98
2023-04-22T10:25:27.138Z,1.05
2023-04-22T10:28:10.944Z,0.90
2023-04-22T10:30:44.333Z,1.30
2023-04-22T10:33:31.460Z,1.37
2023-04-22T10:36:10.543Z,1.50
2023-04-22T10:38:55.503Z,1.40
2023-04-22T10:41:34.259Z,1.10
2023-04-22T10:44:08.337Z,1.10
2023-04-22T10:46:42.799Z,1.10
2023-04-22T10:49:29.176Z,1.37
2023-04-22T10:52:05.673Z,1.17
2023-04-22T10:54:38.622Z,1.33
2023-04-22T10:57:19.234Z,1.30
2023-04-22T11:02:30.086Z,1.07
2023-04-22T11:05:25.371Z,1.10
2023-04-22T11:08:27.854Z,1.20
2023-04-22T11:11:08.941Z,1.20
2023-04-22T11:13:43.909Z,1.30
2023-04-22T11:16:17.237Z,1.33
2023-04-22T11:18:50.389Z,1.10
2023-04-22T11:21:23.484Z,1.23
2023-04-22T11:23:57.821Z,1.37
2023-04-22T11:26:37.797Z,1.30
2023-04-22T11:29:10.557Z,1.30
2023-04-22T11:31:48.630Z,1.20
2023-04-22T11:34:21.422Z,1.33
2023-04-22T11:36:54.503Z,1.30
2023-04-22T11:39:46.510Z,1.37
2023-04-22T11:42:29.000Z,1.30
2023-04-22T11:45:01.995Z,1.30
2023-04-22T11:47:35.856Z,1.20
2023-04-22T11:50:11.718Z,1.23
2023-04-22T11:52:58.495Z,1.23
2023-04-22T11:55:39.714Z,1.30
2023-04-22T11:58:23.672Z,1.23
2023-04-22T12:01:00.751Z,1.00
2023-04-22T12:03:35.200Z,1.77
2023-04-22T12:06:08.357Z,1.30
2023-04-22T12:08:43.064Z,1.02
2023-04-22T12:11:15.995Z,1.33
2023-04-22T12:13:50.665Z,1.00
2023-04-22T12:16:23.457Z,1.15
2023-04-22T12:18:56.476Z,1.10
2023-04-22T12:21:32.291Z,1.23
2023-04-22T12:24:11.333Z,0.97
2023-04-22T12:26:44.032Z,1.20
2023-04-22T12:29:16.990Z,1.50
2023-04-22T12:31:49.924Z,1.20
2023-04-22T12:34:22.669Z,1.13
2023-04-22T12:36:56.380Z,1.15
2023-04-22T12:39:29.433Z,1.20
2023-04-22T12:42:02.237Z,1.23
2023-04-22T12:44:35.019Z,1.20
2023-04-22T12:47:08.035Z,1.20
2023-04-22T12:49:40.953Z,1.27
2023-04-22T12:52:14.117Z,1.23
2023-04-22T12:54:46.869Z,1.20
2023-04-22T12:57:19.852Z,1.30
2023-04-22T12:59:52.673Z,1.42
2023-04-22T13:02:25.908Z,1.30
2023-04-22T13:04:58.715Z,1.30
2023-04-22T13:07:31.922Z,1.45
2023-04-22T13:10:05.817Z,1.23
2023-04-22T13:12:39.833Z,1.50
2023-04-22T13:15:12.590Z,1.30
2023-04-22T13:17:47.623Z,1.13
2023-04-22T13:20:21.386Z,1.05
2023-04-22T13:22:54.246Z,1.38
2023-04-22T13:25:27.117Z,1.30
2023-04-22T13:28:00.066Z,1.00
2023-04-22T13:30:33.109Z,1.00
2023-04-22T13:33:05.977Z,1.10
2023-04-22T13:35:39.043Z,1.40
2023-04-22T13:38:12.007Z,1.42
2023-04-22T13:40:44.790Z,1.40
2023-04-22T13:43:17.487Z,1.30
2023-04-22T13:45:50.664Z,1.30
2023-04-22T13:48:23.471Z,1.70
2023-04-22T13:50:56.562Z,1.60
2023-04-22T13:53:29.672Z,1.70
2023-04-22T13:56:02.516Z,1.65
2023-04-22T13:58:35.627Z,1.40
2023-04-22T14:01:09.300Z,1.25
2023-04-22T14:03:42.419Z,1.55
2023-04-22T14:06:16.181Z,1.47
2023-04-22T14:08:48.931Z,1.50
2023-04-22T14:11:24.516Z,1.60
2023-04-22T14:13:57.366Z,1.60
2023-04-22T14:16:30.366Z,1.73
2023-04-22T14:19:03.112Z,1.60
2023-04-22T14:21:36.348Z,1.53
2023-04-22T14:24:09.072Z,1.50
2023-04-22T14:26:42.188Z,1.90
2023-04-22T14:29:15.382Z,1.70
2023-04-22T14:31:49.918Z,1.90
2023-04-22T14:34:22.897Z,2.03
2023-04-22T14:36:56.868Z,1.83
2023-04-22T14:39:29.668Z,2.00
2023-04-22T14:42:03.643Z,2.30
2023-04-22T14:44:36.491Z,1.97
2023-04-22T14:47:11.214Z,2.23
2023-04-22T14:49:44.249Z,2.60
2023-04-22T14:52:16.989Z,2.13
2023-04-22T14:54:51.811Z,2.50
2023-04-22T14:57:24.888Z,2.30
2023-04-22T14:59:57.941Z,2.00
2023-04-22T15:02:32.565Z,2.20
2023-04-22T15:05:05.693Z,1.97
2023-04-22T15:07:38.428Z,2.23
2023-04-22T15:10:11.555Z,1.93
2023-04-22T15:12:45.400Z,2.20
2023-04-22T15:15:18.659Z,2.17
2023-04-22T15:17:51.813Z,2.27
2023-04-22T15:20:24.797Z,2.30
2023-04-22T15:22:57.919Z,1.90
2023-04-22T15:25:30.980Z,2.03
2023-04-22T15:28:05.768Z,2.00
2023-04-22T15:30:40.903Z,2.00
2023-04-22T15:33:13.641Z,1.90
2023-04-22T15:35:49.563Z,2.07
2023-04-22T15:38:24.638Z,1.90
2023-04-22T15:40:57.426Z,1.93
2023-04-22T15:43:30.852Z,2.20
2023-04-22T15:46:03.648Z,2.17
2023-04-22T15:48:36.725Z,2.20
2023-04-22T15:51:11.476Z,2.37
2023-04-22T15:53:47.950Z,2.27
2023-04-22T15:56:20.953Z,2.63
2023-04-22T15:58:53.977Z,2.17
2023-04-22T16:01:27.014Z,2.10
2023-04-22T16:04:00.198Z,13.30
2023-04-22T16:06:33.150Z,4.93
2023-04-22T16:09:06.796Z,2.50
2023-04-22T16:11:39.715Z,1.93
2023-04-22T16:14:12.532Z,2.40
2023-04-22T16:16:46.043Z,2.33
2023-04-22T16:19:19.589Z,1.73
2023-04-22T16:21:53.116Z,1.93
2023-04-22T16:24:26.647Z,2.20
2023-04-22T16:26:59.651Z,2.10
2023-04-22T16:29:32.735Z,1.90
2023-04-22T16:32:05.980Z,2.20
2023-04-22T16:34:38.979Z,2.03
2023-04-22T16:37:11.740Z,1.90
2023-04-22T16:39:45.362Z,2.10
2023-04-22T16:42:19.049Z,1.90
2023-04-22T16:44:53.376Z,1.90
2023-04-22T16:47:26.927Z,2.50
2023-04-22T16:49:59.774Z,2.03
2023-04-22T16:52:32.938Z,2.40
2023-04-22T16:55:07.054Z,2.10
2023-04-22T16:57:41.134Z,1.93
2023-04-22T17:00:14.686Z,2.20
2023-04-22T17:02:47.501Z,2.10
2023-04-22T17:05:20.335Z,1.93
2023-04-22T17:07:53.243Z,2.57
2023-04-22T17:10:26.192Z,2.23
2023-04-22T17:12:59.269Z,2.07
2023-04-22T17:15:32.411Z,1.87
2023-04-22T17:18:06.558Z,1.77
2023-04-22T17:20:39.788Z,2.13
2023-04-22T17:23:12.794Z,2.47
2023-04-22T17:25:47.098Z,2.37
2023-04-22T17:28:19.977Z,2.20
2023-04-22T17:30:53.511Z,2.30
2023-04-22T17:33:30.349Z,2.50
2023-04-22T17:36:06.690Z,2.85
2023-04-22T17:38:40.901Z,2.60
2023-04-22T17:41:13.975Z,2.17
2023-04-22T18:51:55.604Z,3.00
2023-04-22T18:54:30.072Z,3.03
2023-04-22T18:57:04.526Z,3.00
2023-04-22T18:59:37.250Z,3.00
2023-04-22T19:02:14.115Z,2.60
2023-04-22T19:04:47.627Z,3.38
2023-04-22T19:07:20.732Z,2.77
2023-04-22T19:09:53.776Z,2.50
2023-04-22T19:12:26.810Z,3.20
2023-04-22T19:15:00.467Z,2.97
2023-04-22T19:17:34.838Z,3.03
2023-04-22T19:20:08.584Z,2.63
2023-04-22T19:22:41.623Z,2.67
2023-04-22T19:25:14.461Z,2.90
2023-04-22T19:27:47.522Z,2.73
2023-04-22T19:30:20.828Z,2.63
2023-04-22T19:32:55.174Z,3.10
2023-04-22T19:35:28.398Z,2.50
2023-04-22T19:38:01.529Z,2.83
2023-04-22T19:40:36.038Z,2.63
2023-04-22T19:43:09.023Z,2.73
2023-04-22T19:45:41.733Z,2.57
2023-04-22T19:48:14.905Z,2.43
2023-04-22T19:50:49.110Z,2.20
2023-04-22T19:53:23.587Z,2.30
2023-04-22T19:55:57.473Z,2.17
2023-04-22T19:58:31.937Z,2.20
2023-04-22T20:01:06.507Z,2.20
2023-04-22T20:03:39.913Z,2.00
2023-04-22T20:06:13.235Z,2.03
2023-04-22T20:08:48.455Z,1.33
2023-04-22T20:11:21.751Z,1.70
2023-04-22T20:13:55.499Z,1.70
2023-04-22T20:16:28.566Z,1.43
2023-04-22T20:19:03.937Z,1.23
2023-04-22T20:21:40.161Z,1.30
2023-04-22T20:24:19.938Z,1.50
2023-04-22T20:26:53.105Z,1.30
2023-04-22T20:29:27.778Z,1.40
2023-04-22T20:32:00.779Z,1.40
2023-04-22T20:34:34.040Z,1.40
2023-04-22T20:37:09.652Z,1.23
2023-04-22T20:39:43.552Z,1.40
2023-04-22T20:42:17.401Z,1.50
2023-04-22T20:44:50.212Z,1.60
2023-04-22T20:47:24.628Z,1.30
2023-04-22T20:49:57.446Z,1.70
2023-04-22T20:52:30.219Z,1.60
2023-04-22T20:55:03.692Z,1.50
2023-04-22T20:57:36.676Z,1.40
2023-04-22T21:00:10.313Z,1.97
2023-04-22T21:02:44.248Z,2.17
2023-04-22T21:05:18.076Z,1.90
2023-04-22T21:07:52.818Z,2.03
2023-04-22T21:10:26.245Z,2.10
2023-04-22T21:12:59.552Z,2.47
2023-04-22T21:15:33.157Z,1.93
2023-04-22T21:18:08.440Z,2.17
2023-04-22T21:20:47.554Z,2.40
2023-04-22T21:23:20.926Z,2.23
2023-04-22T21:26:00.501Z,2.53
2023-04-22T21:28:33.809Z,1.80
2023-04-22T21:31:07.380Z,2.47
2023-04-22T21:33:40.231Z,2.20
2023-04-22T21:36:13.369Z,2.43
2023-04-22T21:38:46.348Z,2.27
2023-04-22T21:41:19.117Z,2.13
2023-04-22T21:43:52.145Z,2.17
2023-04-22T21:46:25.165Z,2.30
2023-04-22T21:48:58.462Z,2.00
2023-04-22T21:51:32.318Z,2.27
2023-04-22T21:54:05.778Z,2.63
2023-04-22T21:56:38.777Z,2.47
2023-04-22T21:59:11.779Z,2.43
2023-04-22T22:01:44.959Z,2.20
2023-04-22T22:04:17.886Z,2.50
2023-04-22T22:06:50.748Z,2.70
2023-04-22T22:09:23.629Z,2.57
2023-04-22T22:11:57.400Z,2.60
2023-04-22T22:14:30.382Z,2.90
2023-04-22T22:17:03.578Z,2.43
2023-04-22T22:19:36.466Z,2.60
2023-04-22T22:22:09.223Z,2.90
2023-04-22T22:24:42.752Z,2.47
2023-04-22T22:27:15.857Z,2.60
2023-04-22T22:29:48.845Z,2.77
2023-04-22T22:32:21.645Z,2.40
2023-04-22T22:34:54.702Z,2.70
2023-04-22T22:37:27.481Z,2.63
2023-04-22T22:40:00.652Z,3.10
2023-04-22T22:42:33.768Z,3.13
2023-04-22T22:45:07.032Z,3.17
2023-04-22T22:47:39.805Z,3.33
2023-04-22T22:50:13.108Z,3.40
2023-04-22T22:52:46.022Z,3.00
2023-04-22T22:55:18.840Z,3.70
2023-04-22T22:57:51.513Z,2.93
2023-04-22T23:00:24.490Z,3.23
2023-04-22T23:02:57.915Z,3.30
2023-04-22T23:05:31.066Z,3.73
2023-04-22T23:08:03.953Z,3.43
2023-04-22T23:10:37.279Z,3.47
2023-04-22T23:13:10.250Z,3.60
2023-04-22T23:15:43.501Z,3.50
2023-04-22T23:18:19.996Z,3.40
2023-04-22T23:20:53.494Z,3.53
2023-04-22T23:23:28.233Z,3.43
2023-04-22T23:26:01.631Z,3.13
2023-04-22T23:28:39.164Z,3.33
2023-04-22T23:31:15.562Z,3.27
2023-04-22T23:33:50.700Z,2.90
2023-04-22T23:36:29.737Z,3.40
2023-04-22T23:39:06.181Z,3.10
2023-04-22T23:41:42.250Z,2.70
2023-04-22T23:44:15.064Z,3.40
2023-04-22T23:46:48.148Z,2.80
2023-04-22T23:49:21.297Z,3.07
2023-04-22T23:51:55.820Z,2.57
2023-04-22T23:54:28.960Z,2.43
2023-04-22T23:57:02.814Z,2.93
2023-04-22T23:59:36.089Z,3.03
